sensor_id;sensor_type;location;lat;lon;timestamp;P1;durP1;ratioP1;P2;durP2;ratioP2
53281;SDS011;39167;52.794;6.892;2023-02-24T00:01:36;14.77;;;2.80;;
53281;SDS011;39167;52.794;6.892;2023-02-24T00:04:05;12.88;;;1.98;;
53281;SDS011;39167;52.794;6.892;2023-02-24T00:06:33;9.75;;;2.47;;
53281;SDS011;39167;52.794;6.892;2023-02-24T00:09:02;13.57;;;2.72;;
53281;SDS011;39167;52.794;6.892;2023-02-24T00:13:59;16.10;;;2.72;;
53281;SDS011;39167;52.794;6.892;2023-02-24T00:16:24;15.35;;;2.28;;
53281;SDS011;39167;52.794;6.892;2023-02-24T00:18:51;11.82;;;2.97;;
53281;SDS011;39167;52.794;6.892;2023-02-24T00:21:16;13.30;;;2.67;;
53281;SDS011;39167;52.794;6.892;2023-02-24T00:23:44;12.55;;;2.65;;
53281;SDS011;39167;52.794;6.892;2023-02-24T00:26:12;11.57;;;2.20;;
53281;SDS011;39167;52.794;6.892;2023-02-24T00:28:39;10.75;;;2.50;;
53281;SDS011;39167;52.794;6.892;2023-02-24T00:31:13;5.97;;;1.65;;
53281;SDS011;39167;52.794;6.892;2023-02-24T00:33:40;12.90;;;2.10;;
53281;SDS011;39167;52.794;6.892;2023-02-24T00:36:07;12.35;;;2.63;;
53281;SDS011;39167;52.794;6.892;2023-02-24T00:38:41;17.67;;;2.15;;
53281;SDS011;39167;52.794;6.892;2023-02-24T00:41:11;9.95;;;2.15;;
53281;SDS011;39167;52.794;6.892;2023-02-24T00:43:42;12.68;;;2.05;;
53281;SDS011;39167;52.794;6.892;2023-02-24T00:46:13;11.40;;;2.53;;
53281;SDS011;39167;52.794;6.892;2023-02-24T00:48:41;14.32;;;1.92;;
53281;SDS011;39167;52.794;6.892;2023-02-24T00:51:10;9.55;;;2.08;;
53281;SDS011;39167;52.794;6.892;2023-02-24T00:53:38;9.05;;;1.90;;
53281;SDS011;39167;52.794;6.892;2023-02-24T00:56:08;8.07;;;2.03;;
53281;SDS011;39167;52.794;6.892;2023-02-24T00:58:38;10.43;;;2.35;;
53281;SDS011;39167;52.794;6.892;2023-02-24T01:01:04;11.75;;;2.42;;
53281;SDS011;39167;52.794;6.892;2023-02-24T01:03:37;11.52;;;2.10;;
53281;SDS011;39167;52.794;6.892;2023-02-24T01:06:03;8.63;;;1.60;;
53281;SDS011;39167;52.794;6.892;2023-02-24T01:08:30;9.90;;;2.30;;
53281;SDS011;39167;52.794;6.892;2023-02-24T01:11:00;7.75;;;2.08;;
53281;SDS011;39167;52.794;6.892;2023-02-24T01:13:45;12.40;;;1.92;;
53281;SDS011;39167;52.794;6.892;2023-02-24T01:16:11;14.63;;;2.03;;
53281;SDS011;39167;52.794;6.892;2023-02-24T01:18:39;6.82;;;1.80;;
53281;SDS011;39167;52.794;6.892;2023-02-24T01:21:06;5.07;;;1.90;;
53281;SDS011;39167;52.794;6.892;2023-02-24T01:23:31;11.18;;;2.28;;
53281;SDS011;39167;52.794;6.892;2023-02-24T01:25:57;8.13;;;2.47;;
53281;SDS011;39167;52.794;6.892;2023-02-24T01:28:26;8.30;;;2.10;;
53281;SDS011;39167;52.794;6.892;2023-02-24T01:30:59;8.27;;;2.25;;
53281;SDS011;39167;52.794;6.892;2023-02-24T01:33:29;10.15;;;2.30;;
53281;SDS011;39167;52.794;6.892;2023-02-24T01:36:06;9.93;;;2.83;;
53281;SDS011;39167;52.794;6.892;2023-02-24T01:38:33;13.55;;;2.08;;
53281;SDS011;39167;52.794;6.892;2023-02-24T01:41:01;13.18;;;2.33;;
53281;SDS011;39167;52.794;6.892;2023-02-24T01:43:29;8.20;;;2.20;;
53281;SDS011;39167;52.794;6.892;2023-02-24T01:45:56;9.65;;;2.15;;
53281;SDS011;39167;52.794;6.892;2023-02-24T01:48:21;11.95;;;2.30;;
53281;SDS011;39167;52.794;6.892;2023-02-24T01:50:48;8.77;;;2.13;;
53281;SDS011;39167;52.794;6.892;2023-02-24T01:53:15;12.00;;;2.53;;
53281;SDS011;39167;52.794;6.892;2023-02-24T01:58:21;7.90;;;2.40;;
53281;SDS011;39167;52.794;6.892;2023-02-24T02:00:50;10.82;;;2.00;;
53281;SDS011;39167;52.794;6.892;2023-02-24T02:05:55;10.27;;;2.35;;
53281;SDS011;39167;52.794;6.892;2023-02-24T02:08:25;12.30;;;2.00;;
53281;SDS011;39167;52.794;6.892;2023-02-24T02:10:53;10.20;;;2.33;;
53281;SDS011;39167;52.794;6.892;2023-02-24T02:13:23;10.70;;;2.30;;
53281;SDS011;39167;52.794;6.892;2023-02-24T02:15:55;9.60;;;2.17;;
53281;SDS011;39167;52.794;6.892;2023-02-24T02:35:57;6.45;;;1.50;;
53281;SDS011;39167;52.794;6.892;2023-02-24T02:38:46;9.10;;;2.13;;
53281;SDS011;39167;52.794;6.892;2023-02-24T02:44:50;9.90;;;2.00;;
53281;SDS011;39167;52.794;6.892;2023-02-24T02:47:33;16.90;;;1.98;;
53281;SDS011;39167;52.794;6.892;2023-02-24T02:52:41;10.70;;;2.53;;
53281;SDS011;39167;52.794;6.892;2023-02-24T02:55:14;7.18;;;1.75;;
53281;SDS011;39167;52.794;6.892;2023-02-24T02:57:48;6.93;;;2.10;;
53281;SDS011;39167;52.794;6.892;2023-02-24T03:00:27;9.93;;;1.90;;
53281;SDS011;39167;52.794;6.892;2023-02-24T03:03:02;7.28;;;1.55;;
53281;SDS011;39167;52.794;6.892;2023-02-24T03:05:38;11.60;;;2.08;;
53281;SDS011;39167;52.794;6.892;2023-02-24T03:08:11;10.48;;;1.60;;
53281;SDS011;39167;52.794;6.892;2023-02-24T03:10:45;6.40;;;1.45;;
53281;SDS011;39167;52.794;6.892;2023-02-24T03:13:15;10.32;;;1.95;;
53281;SDS011;39167;52.794;6.892;2023-02-24T03:15:45;10.07;;;2.10;;
53281;SDS011;39167;52.794;6.892;2023-02-24T03:18:19;7.55;;;1.85;;
53281;SDS011;39167;52.794;6.892;2023-02-24T03:21:15;9.95;;;1.80;;
53281;SDS011;39167;52.794;6.892;2023-02-24T03:23:48;7.63;;;1.35;;
53281;SDS011;39167;52.794;6.892;2023-02-24T03:32:05;8.02;;;1.67;;
53281;SDS011;39167;52.794;6.892;2023-02-24T03:37:26;9.10;;;1.30;;
53281;SDS011;39167;52.794;6.892;2023-02-24T03:39:55;8.38;;;1.85;;
53281;SDS011;39167;52.794;6.892;2023-02-24T03:42:24;10.73;;;1.60;;
53281;SDS011;39167;52.794;6.892;2023-02-24T03:44:54;12.57;;;1.73;;
53281;SDS011;39167;52.794;6.892;2023-02-24T03:47:22;7.00;;;2.03;;
53281;SDS011;39167;52.794;6.892;2023-02-24T03:49:49;10.60;;;1.50;;
53281;SDS011;39167;52.794;6.892;2023-02-24T03:52:34;6.90;;;1.48;;
53281;SDS011;39167;52.794;6.892;2023-02-24T03:57:49;9.23;;;1.58;;
53281;SDS011;39167;52.794;6.892;2023-02-24T04:00:29;9.07;;;1.95;;
53281;SDS011;39167;52.794;6.892;2023-02-24T04:06:03;7.97;;;1.52;;
53281;SDS011;39167;52.794;6.892;2023-02-24T04:11:01;8.05;;;1.60;;
53281;SDS011;39167;52.794;6.892;2023-02-24T04:13:48;10.15;;;1.83;;
53281;SDS011;39167;52.794;6.892;2023-02-24T04:16:20;6.40;;;1.25;;
53281;SDS011;39167;52.794;6.892;2023-02-24T04:18:54;7.35;;;1.60;;
53281;SDS011;39167;52.794;6.892;2023-02-24T04:21:25;8.80;;;1.70;;
53281;SDS011;39167;52.794;6.892;2023-02-24T04:23:54;11.45;;;2.03;;
53281;SDS011;39167;52.794;6.892;2023-02-24T04:26:21;10.15;;;1.92;;
53281;SDS011;39167;52.794;6.892;2023-02-24T04:28:48;6.18;;;1.45;;
53281;SDS011;39167;52.794;6.892;2023-02-24T04:31:15;6.90;;;1.70;;
53281;SDS011;39167;52.794;6.892;2023-02-24T04:33:45;8.07;;;1.60;;
53281;SDS011;39167;52.794;6.892;2023-02-24T04:36:18;9.73;;;1.52;;
53281;SDS011;39167;52.794;6.892;2023-02-24T04:38:44;8.45;;;1.60;;
53281;SDS011;39167;52.794;6.892;2023-02-24T04:41:12;7.63;;;1.50;;
53281;SDS011;39167;52.794;6.892;2023-02-24T04:43:51;8.75;;;1.77;;
53281;SDS011;39167;52.794;6.892;2023-02-24T04:46:17;6.80;;;1.95;;
53281;SDS011;39167;52.794;6.892;2023-02-24T04:48:43;9.15;;;2.20;;
53281;SDS011;39167;52.794;6.892;2023-02-24T04:51:10;7.18;;;1.98;;
53281;SDS011;39167;52.794;6.892;2023-02-24T04:53:36;7.32;;;1.73;;
53281;SDS011;39167;52.794;6.892;2023-02-24T04:56:03;7.88;;;1.42;;
53281;SDS011;39167;52.794;6.892;2023-02-24T04:58:33;8.50;;;1.80;;
53281;SDS011;39167;52.794;6.892;2023-02-24T05:01:04;8.50;;;1.67;;
53281;SDS011;39167;52.794;6.892;2023-02-24T05:03:35;8.82;;;1.63;;
53281;SDS011;39167;52.794;6.892;2023-02-24T05:06:01;4.68;;;1.52;;
53281;SDS011;39167;52.794;6.892;2023-02-24T05:08:28;7.25;;;1.75;;
53281;SDS011;39167;52.794;6.892;2023-02-24T05:10:55;4.47;;;1.55;;
53281;SDS011;39167;52.794;6.892;2023-02-24T05:13:23;10.13;;;1.75;;
53281;SDS011;39167;52.794;6.892;2023-02-24T05:15:51;7.70;;;1.60;;
53281;SDS011;39167;52.794;6.892;2023-02-24T05:18:21;9.23;;;1.95;;
53281;SDS011;39167;52.794;6.892;2023-02-24T05:20:54;7.47;;;2.13;;
53281;SDS011;39167;52.794;6.892;2023-02-24T05:23:40;7.93;;;2.25;;
53281;SDS011;39167;52.794;6.892;2023-02-24T05:26:15;7.35;;;1.45;;
53281;SDS011;39167;52.794;6.892;2023-02-24T05:28:46;8.50;;;1.65;;
53281;SDS011;39167;52.794;6.892;2023-02-24T05:31:17;5.05;;;1.70;;
53281;SDS011;39167;52.794;6.892;2023-02-24T05:33:46;6.00;;;2.08;;
53281;SDS011;39167;52.794;6.892;2023-02-24T05:36:14;4.40;;;1.60;;
53281;SDS011;39167;52.794;6.892;2023-02-24T05:38:41;9.40;;;1.92;;
53281;SDS011;39167;52.794;6.892;2023-02-24T05:41:12;7.90;;;1.40;;
53281;SDS011;39167;52.794;6.892;2023-02-24T05:46:15;6.18;;;1.67;;
53281;SDS011;39167;52.794;6.892;2023-02-24T05:48:41;7.88;;;1.50;;
53281;SDS011;39167;52.794;6.892;2023-02-24T05:51:08;9.98;;;1.52;;
53281;SDS011;39167;52.794;6.892;2023-02-24T05:53:36;7.28;;;1.67;;
53281;SDS011;39167;52.794;6.892;2023-02-24T05:56:06;7.55;;;1.55;;
53281;SDS011;39167;52.794;6.892;2023-02-24T05:58:32;5.32;;;1.90;;
53281;SDS011;39167;52.794;6.892;2023-02-24T06:00:58;8.95;;;1.23;;
53281;SDS011;39167;52.794;6.892;2023-02-24T06:03:31;6.75;;;1.95;;
53281;SDS011;39167;52.794;6.892;2023-02-24T06:05:59;7.10;;;1.73;;
53281;SDS011;39167;52.794;6.892;2023-02-24T06:08:33;6.75;;;1.30;;
53281;SDS011;39167;52.794;6.892;2023-02-24T06:11:09;8.93;;;2.08;;
53281;SDS011;39167;52.794;6.892;2023-02-24T06:13:35;10.27;;;1.88;;
53281;SDS011;39167;52.794;6.892;2023-02-24T06:16:03;6.10;;;1.25;;
53281;SDS011;39167;52.794;6.892;2023-02-24T06:18:32;9.55;;;1.90;;
53281;SDS011;39167;52.794;6.892;2023-02-24T06:21:01;12.20;;;1.95;;
53281;SDS011;39167;52.794;6.892;2023-02-24T06:23:27;13.57;;;2.38;;
53281;SDS011;39167;52.794;6.892;2023-02-24T06:25:53;5.78;;;1.90;;
53281;SDS011;39167;52.794;6.892;2023-02-24T06:28:22;7.47;;;1.95;;
53281;SDS011;39167;52.794;6.892;2023-02-24T06:30:49;8.43;;;2.38;;
53281;SDS011;39167;52.794;6.892;2023-02-24T06:33:15;10.35;;;1.80;;
53281;SDS011;39167;52.794;6.892;2023-02-24T06:35:40;12.25;;;2.38;;
53281;SDS011;39167;52.794;6.892;2023-02-24T06:38:06;10.43;;;1.77;;
53281;SDS011;39167;52.794;6.892;2023-02-24T06:40:32;12.77;;;2.60;;
53281;SDS011;39167;52.794;6.892;2023-02-24T06:42:58;5.50;;;2.00;;
53281;SDS011;39167;52.794;6.892;2023-02-24T06:45:23;7.43;;;1.77;;
53281;SDS011;39167;52.794;6.892;2023-02-24T06:47:50;7.95;;;1.70;;
53281;SDS011;39167;52.794;6.892;2023-02-24T06:50:16;8.68;;;2.03;;
53281;SDS011;39167;52.794;6.892;2023-02-24T06:52:47;14.18;;;2.22;;
53281;SDS011;39167;52.794;6.892;2023-02-24T06:55:13;7.65;;;2.40;;
53281;SDS011;39167;52.794;6.892;2023-02-24T06:57:55;7.75;;;2.30;;
53281;SDS011;39167;52.794;6.892;2023-02-24T07:00:32;13.05;;;2.60;;
53281;SDS011;39167;52.794;6.892;2023-02-24T07:03:06;12.02;;;2.00;;
53281;SDS011;39167;52.794;6.892;2023-02-24T07:05:43;11.07;;;2.10;;
53281;SDS011;39167;52.794;6.892;2023-02-24T07:08:27;14.98;;;2.20;;
53281;SDS011;39167;52.794;6.892;2023-02-24T07:10:56;7.07;;;2.15;;
53281;SDS011;39167;52.794;6.892;2023-02-24T07:13:24;13.18;;;2.20;;
53281;SDS011;39167;52.794;6.892;2023-02-24T07:15:52;11.38;;;2.28;;
53281;SDS011;39167;52.794;6.892;2023-02-24T07:18:18;12.00;;;2.53;;
53281;SDS011;39167;52.794;6.892;2023-02-24T07:20:44;9.20;;;1.83;;
53281;SDS011;39167;52.794;6.892;2023-02-24T07:23:11;5.30;;;2.00;;
53281;SDS011;39167;52.794;6.892;2023-02-24T07:25:38;10.65;;;2.67;;
53281;SDS011;39167;52.794;6.892;2023-02-24T07:28:05;10.55;;;2.38;;
53281;SDS011;39167;52.794;6.892;2023-02-24T07:30:32;9.45;;;2.40;;
53281;SDS011;39167;52.794;6.892;2023-02-24T07:32:58;11.13;;;2.70;;
53281;SDS011;39167;52.794;6.892;2023-02-24T07:35:24;12.63;;;2.42;;
53281;SDS011;39167;52.794;6.892;2023-02-24T07:37:50;7.80;;;1.90;;
53281;SDS011;39167;52.794;6.892;2023-02-24T07:40:16;16.60;;;3.28;;
53281;SDS011;39167;52.794;6.892;2023-02-24T07:42:46;11.80;;;2.80;;
53281;SDS011;39167;52.794;6.892;2023-02-24T07:45:12;14.55;;;2.78;;
53281;SDS011;39167;52.794;6.892;2023-02-24T07:47:38;9.52;;;2.42;;
53281;SDS011;39167;52.794;6.892;2023-02-24T07:50:07;10.77;;;2.78;;
53281;SDS011;39167;52.794;6.892;2023-02-24T07:52:38;15.52;;;2.67;;
53281;SDS011;39167;52.794;6.892;2023-02-24T07:55:05;7.95;;;3.03;;
53281;SDS011;39167;52.794;6.892;2023-02-24T07:57:33;11.18;;;2.85;;
53281;SDS011;39167;52.794;6.892;2023-02-24T08:00:03;14.60;;;3.67;;
53281;SDS011;39167;52.794;6.892;2023-02-24T08:02:54;10.00;;;2.78;;
53281;SDS011;39167;52.794;6.892;2023-02-24T08:05:20;13.43;;;2.67;;
53281;SDS011;39167;52.794;6.892;2023-02-24T08:07:48;13.10;;;2.85;;
53281;SDS011;39167;52.794;6.892;2023-02-24T08:10:20;18.00;;;2.67;;
53281;SDS011;39167;52.794;6.892;2023-02-24T08:12:53;7.97;;;2.92;;
53281;SDS011;39167;52.794;6.892;2023-02-24T08:15:24;10.68;;;2.95;;
53281;SDS011;39167;52.794;6.892;2023-02-24T08:17:56;11.55;;;2.67;;
53281;SDS011;39167;52.794;6.892;2023-02-24T08:20:29;13.48;;;3.17;;
53281;SDS011;39167;52.794;6.892;2023-02-24T08:23:16;9.77;;;3.20;;
53281;SDS011;39167;52.794;6.892;2023-02-24T08:25:42;11.68;;;3.50;;
53281;SDS011;39167;52.794;6.892;2023-02-24T08:28:08;17.02;;;3.25;;
53281;SDS011;39167;52.794;6.892;2023-02-24T08:30:42;15.15;;;3.35;;
53281;SDS011;39167;52.794;6.892;2023-02-24T08:33:12;16.60;;;3.50;;
53281;SDS011;39167;52.794;6.892;2023-02-24T08:38:15;11.38;;;3.33;;
53281;SDS011;39167;52.794;6.892;2023-02-24T08:40:47;17.13;;;4.07;;
53281;SDS011;39167;52.794;6.892;2023-02-24T08:43:36;10.30;;;3.60;;
53281;SDS011;39167;52.794;6.892;2023-02-24T08:48:43;11.85;;;3.80;;
53281;SDS011;39167;52.794;6.892;2023-02-24T08:51:13;10.15;;;3.20;;
53281;SDS011;39167;52.794;6.892;2023-02-24T08:53:40;12.77;;;3.85;;
53281;SDS011;39167;52.794;6.892;2023-02-24T08:56:07;7.47;;;3.30;;
53281;SDS011;39167;52.794;6.892;2023-02-24T08:58:42;15.65;;;4.05;;
53281;SDS011;39167;52.794;6.892;2023-02-24T09:01:19;17.45;;;3.70;;
53281;SDS011;39167;52.794;6.892;2023-02-24T09:03:57;16.70;;;3.88;;
53281;SDS011;39167;52.794;6.892;2023-02-24T09:06:56;11.52;;;4.00;;
53281;SDS011;39167;52.794;6.892;2023-02-24T09:09:22;15.93;;;4.45;;
53281;SDS011;39167;52.794;6.892;2023-02-24T09:11:52;9.30;;;3.90;;
53281;SDS011;39167;52.794;6.892;2023-02-24T09:14:30;16.25;;;5.10;;
53281;SDS011;39167;52.794;6.892;2023-02-24T09:17:04;16.90;;;3.70;;
53281;SDS011;39167;52.794;6.892;2023-02-24T09:19:44;19.70;;;3.90;;
53281;SDS011;39167;52.794;6.892;2023-02-24T09:22:12;14.70;;;4.07;;
53281;SDS011;39167;52.794;6.892;2023-02-24T09:24:58;16.77;;;4.78;;
53281;SDS011;39167;52.794;6.892;2023-02-24T09:27:43;16.20;;;4.63;;
53281;SDS011;39167;52.794;6.892;2023-02-24T09:30:24;14.77;;;4.35;;
53281;SDS011;39167;52.794;6.892;2023-02-24T09:33:12;13.80;;;4.25;;
53281;SDS011;39167;52.794;6.892;2023-02-24T09:36:03;16.55;;;5.03;;
53281;SDS011;39167;52.794;6.892;2023-02-24T09:38:43;11.60;;;4.68;;
53281;SDS011;39167;52.794;6.892;2023-02-24T09:41:37;12.38;;;5.15;;
53281;SDS011;39167;52.794;6.892;2023-02-24T09:44:27;11.05;;;5.32;;
53281;SDS011;39167;52.794;6.892;2023-02-24T09:46:55;12.95;;;5.15;;
53281;SDS011;39167;52.794;6.892;2023-02-24T09:49:32;16.73;;;5.30;;
53281;SDS011;39167;52.794;6.892;2023-02-24T09:52:14;15.43;;;5.28;;
53281;SDS011;39167;52.794;6.892;2023-02-24T09:54:42;16.65;;;5.85;;
53281;SDS011;39167;52.794;6.892;2023-02-24T09:57:30;12.88;;;5.30;;
53281;SDS011;39167;52.794;6.892;2023-02-24T10:02:56;14.15;;;5.25;;
53281;SDS011;39167;52.794;6.892;2023-02-24T10:05:54;15.07;;;6.15;;
53281;SDS011;39167;52.794;6.892;2023-02-24T10:08:37;13.98;;;5.68;;
53281;SDS011;39167;52.794;6.892;2023-02-24T10:11:08;15.25;;;5.30;;
53281;SDS011;39167;52.794;6.892;2023-02-24T10:13:54;15.60;;;5.93;;
53281;SDS011;39167;52.794;6.892;2023-02-24T10:16:22;17.75;;;6.22;;
53281;SDS011;39167;52.794;6.892;2023-02-24T10:19:10;15.35;;;6.03;;
53281;SDS011;39167;52.794;6.892;2023-02-24T10:21:48;16.90;;;6.35;;
53281;SDS011;39167;52.794;6.892;2023-02-24T10:27:10;14.45;;;6.05;;
53281;SDS011;39167;52.794;6.892;2023-02-24T10:35:00;14.68;;;6.65;;
53281;SDS011;39167;52.794;6.892;2023-02-24T10:37:26;15.13;;;5.95;;
53281;SDS011;39167;52.794;6.892;2023-02-24T10:39:58;14.25;;;6.05;;
53281;SDS011;39167;52.794;6.892;2023-02-24T10:42:33;12.50;;;5.53;;
53281;SDS011;39167;52.794;6.892;2023-02-24T10:50:27;13.77;;;5.38;;
53281;SDS011;39167;52.794;6.892;2023-02-24T10:53:02;10.77;;;5.20;;
53281;SDS011;39167;52.794;6.892;2023-02-24T10:55:40;11.57;;;5.47;;
53281;SDS011;39167;52.794;6.892;2023-02-24T11:01:17;16.75;;;6.07;;
53281;SDS011;39167;52.794;6.892;2023-02-24T11:04:04;10.10;;;5.10;;
53281;SDS011;39167;52.794;6.892;2023-02-24T11:06:47;12.20;;;5.45;;
53281;SDS011;39167;52.794;6.892;2023-02-24T11:09:23;9.82;;;5.28;;
53281;SDS011;39167;52.794;6.892;2023-02-24T11:11:57;15.10;;;5.72;;
53281;SDS011;39167;52.794;6.892;2023-02-24T11:14:50;12.65;;;6.28;;
53281;SDS011;39167;52.794;6.892;2023-02-24T11:17:58;14.63;;;6.68;;
53281;SDS011;39167;52.794;6.892;2023-02-24T11:20:29;13.77;;;6.75;;
53281;SDS011;39167;52.794;6.892;2023-02-24T11:22:55;15.17;;;6.83;;
53281;SDS011;39167;52.794;6.892;2023-02-24T11:25:23;16.73;;;7.43;;
53281;SDS011;39167;52.794;6.892;2023-02-24T11:27:52;19.23;;;6.88;;
53281;SDS011;39167;52.794;6.892;2023-02-24T11:35:30;21.02;;;7.18;;
53281;SDS011;39167;52.794;6.892;2023-02-24T11:41:04;20.75;;;6.32;;
53281;SDS011;39167;52.794;6.892;2023-02-24T11:43:44;22.40;;;6.07;;
53281;SDS011;39167;52.794;6.892;2023-02-24T11:46:21;15.65;;;5.05;;
53281;SDS011;39167;52.794;6.892;2023-02-24T11:48:58;20.00;;;5.82;;
53281;SDS011;39167;52.794;6.892;2023-02-24T11:51:30;30.98;;;6.32;;
53281;SDS011;39167;52.794;6.892;2023-02-24T11:54:03;21.67;;;4.30;;
53281;SDS011;39167;52.794;6.892;2023-02-24T11:56:41;20.85;;;4.05;;
53281;SDS011;39167;52.794;6.892;2023-02-24T11:59:29;20.10;;;3.78;;
53281;SDS011;39167;52.794;6.892;2023-02-24T12:02:20;16.35;;;3.30;;
53281;SDS011;39167;52.794;6.892;2023-02-24T12:05:15;19.95;;;4.00;;
53281;SDS011;39167;52.794;6.892;2023-02-24T12:07:43;21.05;;;3.97;;
53281;SDS011;39167;52.794;6.892;2023-02-24T12:10:18;28.02;;;4.68;;
53281;SDS011;39167;52.794;6.892;2023-02-24T12:15:48;18.53;;;4.00;;
53281;SDS011;39167;52.794;6.892;2023-02-24T12:20:57;14.93;;;3.20;;
53281;SDS011;39167;52.794;6.892;2023-02-24T12:23:39;28.60;;;4.43;;
53281;SDS011;39167;52.794;6.892;2023-02-24T12:34:04;17.33;;;3.15;;
53281;SDS011;39167;52.794;6.892;2023-02-24T12:36:43;21.75;;;3.58;;
53281;SDS011;39167;52.794;6.892;2023-02-24T12:39:29;22.70;;;3.35;;
53281;SDS011;39167;52.794;6.892;2023-02-24T12:42:23;16.65;;;3.47;;
53281;SDS011;39167;52.794;6.892;2023-02-24T12:45:13;22.58;;;3.83;;
53281;SDS011;39167;52.794;6.892;2023-02-24T12:47:48;24.95;;;4.18;;
53281;SDS011;39167;52.794;6.892;2023-02-24T12:56:00;24.17;;;4.95;;
53281;SDS011;39167;52.794;6.892;2023-02-24T12:58:47;21.52;;;4.07;;
53281;SDS011;39167;52.794;6.892;2023-02-24T13:06:47;14.02;;;2.38;;
53281;SDS011;39167;52.794;6.892;2023-02-24T13:09:27;10.95;;;1.90;;
53281;SDS011;39167;52.794;6.892;2023-02-24T13:14:44;13.02;;;2.30;;
53281;SDS011;39167;52.794;6.892;2023-02-24T13:19:37;12.00;;;1.83;;
53281;SDS011;39167;52.794;6.892;2023-02-24T13:24:41;11.52;;;2.10;;
53281;SDS011;39167;52.794;6.892;2023-02-24T13:27:23;14.77;;;2.20;;
53281;SDS011;39167;52.794;6.892;2023-02-24T13:30:21;11.63;;;1.98;;
53281;SDS011;39167;52.794;6.892;2023-02-24T13:35:43;17.48;;;3.15;;
53281;SDS011;39167;52.794;6.892;2023-02-24T13:43:58;20.38;;;3.17;;
53281;SDS011;39167;52.794;6.892;2023-02-24T13:46:27;29.05;;;2.78;;
53281;SDS011;39167;52.794;6.892;2023-02-24T13:49:22;17.20;;;3.00;;
53281;SDS011;39167;52.794;6.892;2023-02-24T13:57:01;9.13;;;1.70;;
53281;SDS011;39167;52.794;6.892;2023-02-24T14:02:21;9.15;;;1.58;;
53281;SDS011;39167;52.794;6.892;2023-02-24T14:04:55;6.97;;;1.70;;
53281;SDS011;39167;52.794;6.892;2023-02-24T14:07:31;13.10;;;1.95;;
53281;SDS011;39167;52.794;6.892;2023-02-24T14:10:01;10.07;;;1.60;;
53281;SDS011;39167;52.794;6.892;2023-02-24T14:12:40;7.75;;;1.30;;
53281;SDS011;39167;52.794;6.892;2023-02-24T14:15:19;9.52;;;1.73;;
53281;SDS011;39167;52.794;6.892;2023-02-24T14:18:04;9.77;;;1.95;;
53281;SDS011;39167;52.794;6.892;2023-02-24T14:20:34;10.45;;;1.92;;
53281;SDS011;39167;52.794;6.892;2023-02-24T14:23:13;9.75;;;1.77;;
53281;SDS011;39167;52.794;6.892;2023-02-24T14:25:57;10.75;;;1.30;;
53281;SDS011;39167;52.794;6.892;2023-02-24T14:28:30;8.35;;;1.08;;
53281;SDS011;39167;52.794;6.892;2023-02-24T14:30:59;11.23;;;1.45;;
53281;SDS011;39167;52.794;6.892;2023-02-24T14:33:35;11.32;;;1.42;;
53281;SDS011;39167;52.794;6.892;2023-02-24T14:36:02;9.02;;;1.08;;
53281;SDS011;39167;52.794;6.892;2023-02-24T14:38:36;5.95;;;1.15;;
53281;SDS011;39167;52.794;6.892;2023-02-24T14:41:04;8.10;;;0.98;;
53281;SDS011;39167;52.794;6.892;2023-02-24T14:43:52;6.93;;;0.90;;
53281;SDS011;39167;52.794;6.892;2023-02-24T14:46:19;6.80;;;1.00;;
53281;SDS011;39167;52.794;6.892;2023-02-24T14:48:45;6.68;;;1.10;;
53281;SDS011;39167;52.794;6.892;2023-02-24T14:51:33;8.35;;;1.38;;
53281;SDS011;39167;52.794;6.892;2023-02-24T14:54:02;9.00;;;1.48;;
53281;SDS011;39167;52.794;6.892;2023-02-24T14:56:31;3.95;;;0.95;;
53281;SDS011;39167;52.794;6.892;2023-02-24T14:59:01;6.95;;;0.98;;
53281;SDS011;39167;52.794;6.892;2023-02-24T15:01:49;7.15;;;1.10;;
53281;SDS011;39167;52.794;6.892;2023-02-24T15:07:11;6.50;;;0.73;;
53281;SDS011;39167;52.794;6.892;2023-02-24T15:09:43;3.33;;;1.10;;
53281;SDS011;39167;52.794;6.892;2023-02-24T15:12:18;3.75;;;0.40;;
53281;SDS011;39167;52.794;6.892;2023-02-24T15:14:48;6.45;;;0.88;;
53281;SDS011;39167;52.794;6.892;2023-02-24T15:17:17;5.10;;;0.70;;
53281;SDS011;39167;52.794;6.892;2023-02-24T15:19:45;4.10;;;0.90;;
53281;SDS011;39167;52.794;6.892;2023-02-24T15:22:20;3.63;;;1.27;;
53281;SDS011;39167;52.794;6.892;2023-02-24T15:25:11;5.72;;;1.00;;
53281;SDS011;39167;52.794;6.892;2023-02-24T15:33:16;11.00;;;1.63;;
53281;SDS011;39167;52.794;6.892;2023-02-24T15:35:49;6.40;;;1.40;;
53281;SDS011;39167;52.794;6.892;2023-02-24T15:38:39;17.40;;;1.92;;
53281;SDS011;39167;52.794;6.892;2023-02-24T15:41:07;8.50;;;2.45;;
53281;SDS011;39167;52.794;6.892;2023-02-24T15:43:44;14.18;;;1.52;;
53281;SDS011;39167;52.794;6.892;2023-02-24T15:46:13;9.48;;;2.08;;
53281;SDS011;39167;52.794;6.892;2023-02-24T15:48:41;10.48;;;1.65;;
53281;SDS011;39167;52.794;6.892;2023-02-24T15:51:09;7.38;;;1.45;;
53281;SDS011;39167;52.794;6.892;2023-02-24T15:53:44;12.80;;;1.90;;
53281;SDS011;39167;52.794;6.892;2023-02-24T15:56:10;6.25;;;1.23;;
53281;SDS011;39167;52.794;6.892;2023-02-24T15:58:35;4.97;;;0.93;;
53281;SDS011;39167;52.794;6.892;2023-02-24T16:01:02;7.28;;;1.20;;
53281;SDS011;39167;52.794;6.892;2023-02-24T16:03:28;9.63;;;1.50;;
53281;SDS011;39167;52.794;6.892;2023-02-24T16:05:53;8.73;;;2.00;;
53281;SDS011;39167;52.794;6.892;2023-02-24T16:08:19;14.75;;;2.92;;
53281;SDS011;39167;52.794;6.892;2023-02-24T16:10:46;11.68;;;2.13;;
53281;SDS011;39167;52.794;6.892;2023-02-24T16:13:16;12.63;;;1.70;;
53281;SDS011;39167;52.794;6.892;2023-02-24T16:15:48;10.00;;;1.70;;
53281;SDS011;39167;52.794;6.892;2023-02-24T16:18:19;10.88;;;2.35;;
53281;SDS011;39167;52.794;6.892;2023-02-24T16:20:47;14.45;;;2.25;;
53281;SDS011;39167;52.794;6.892;2023-02-24T16:23:23;13.32;;;2.33;;
53281;SDS011;39167;52.794;6.892;2023-02-24T16:25:50;15.23;;;2.20;;
53281;SDS011;39167;52.794;6.892;2023-02-24T16:28:20;15.40;;;3.10;;
53281;SDS011;39167;52.794;6.892;2023-02-24T16:30:47;16.05;;;3.50;;
53281;SDS011;39167;52.794;6.892;2023-02-24T16:33:15;14.25;;;2.05;;
53281;SDS011;39167;52.794;6.892;2023-02-24T16:35:42;15.85;;;2.65;;
53281;SDS011;39167;52.794;6.892;2023-02-24T16:38:15;12.23;;;2.63;;
53281;SDS011;39167;52.794;6.892;2023-02-24T16:40:43;20.35;;;2.85;;
53281;SDS011;39167;52.794;6.892;2023-02-24T16:43:10;14.73;;;3.35;;
53281;SDS011;39167;52.794;6.892;2023-02-24T16:45:40;18.20;;;3.42;;
53281;SDS011;39167;52.794;6.892;2023-02-24T16:48:08;23.45;;;4.63;;
53281;SDS011;39167;52.794;6.892;2023-02-24T16:50:42;21.90;;;3.13;;
53281;SDS011;39167;52.794;6.892;2023-02-24T16:53:12;15.40;;;3.25;;
53281;SDS011;39167;52.794;6.892;2023-02-24T16:55:40;15.73;;;2.75;;
53281;SDS011;39167;52.794;6.892;2023-02-24T16:58:07;20.05;;;3.70;;
53281;SDS011;39167;52.794;6.892;2023-02-24T17:00:33;14.70;;;2.88;;
53281;SDS011;39167;52.794;6.892;2023-02-24T17:02:59;22.75;;;3.45;;
53281;SDS011;39167;52.794;6.892;2023-02-24T17:05:30;18.05;;;3.20;;
53281;SDS011;39167;52.794;6.892;2023-02-24T17:07:56;15.32;;;3.40;;
53281;SDS011;39167;52.794;6.892;2023-02-24T17:10:22;20.73;;;3.10;;
53281;SDS011;39167;52.794;6.892;2023-02-24T17:12:49;14.32;;;3.05;;
53281;SDS011;39167;52.794;6.892;2023-02-24T17:15:19;22.27;;;4.68;;
53281;SDS011;39167;52.794;6.892;2023-02-24T17:17:46;14.25;;;3.42;;
53281;SDS011;39167;52.794;6.892;2023-02-24T17:20:13;19.65;;;4.28;;
53281;SDS011;39167;52.794;6.892;2023-02-24T17:22:41;14.88;;;3.20;;
53281;SDS011;39167;52.794;6.892;2023-02-24T17:25:11;18.38;;;2.83;;
53281;SDS011;39167;52.794;6.892;2023-02-24T17:27:43;15.75;;;3.50;;
53281;SDS011;39167;52.794;6.892;2023-02-24T17:30:12;16.40;;;3.88;;
53281;SDS011;39167;52.794;6.892;2023-02-24T17:32:40;24.10;;;6.97;;